Text analysis for RMOS!! (onetwoss)

Return to profile of RMOS!! (onetwoss)

View texts not yet raced by RMOS!! (onetwoss)

Sorted by best race

Rank Text Best WPM Overall Difficulty Relative Speed Text Length Races Average WPM Last race
1. The root of all your evil is in always relying on one of you... 78.61 1.1465 0.1775 213 1 78.61 2023-04-24
2. Something in the wind has learned my name and it's telling m... 78.56 1.1377 0.1855 192 1 78.56 2023-04-24
3. I wanted to understand as much as I could about the procedur... 78.29 1.0793 0.2393 267 1 78.29 2023-04-24
4. There are mysteries to the universe we were never meant to s... 76.53 1.0667 0.2223 152 1 76.53 2023-04-24
5. For all those times you stood by me, for all the truth that ... 76.17 1.1368 0.1461 155 2 74.51 2023-09-14
6. The battle for tomorrow is beginning. If they lose, then the... 75.97 1.0822 0.1974 240 1 75.97 2023-04-24
7. I wouldn't hold my breath if I was you, you broke my heart a... 75.63 1.0220 0.2518 158 1 75.63 2023-04-24
8. I took my morning walk, I took my evening walk, I ate someth... 74.54 1.0868 0.1687 254 1 74.54 2023-04-24
9. Therefore a man shall leave his father and mother and be joi... 72.44 1.1522 0.0679 109 1 72.44 2023-04-24
10. I never came to the beach or stood by the ocean, I never sat... 71.83 1.0845 0.1253 165 1 71.83 2023-04-24
11. If only all the contradictory voices shouting inside my head... 71.77 1.0513 0.1575 176 1 71.77 2023-04-24
12. If everyone keeps asking you the same questions, maybe you h... 71.70 0.9969 0.2107 111 1 71.70 2023-04-23
13. Children know something that we all too often set aside once... 71.68 1.0534 0.1539 179 1 71.68 2023-04-23
14. There's a hole in the world like a great black pit. And the ... 70.09 1.0679 0.1126 177 1 70.09 2023-04-24
15. The rules of shotgun are very simple and very clear. The fir... 69.97 1.0778 0.1007 228 1 69.97 2023-04-24
16. You're horrible. You make up this story about demons talking... 69.86 1.0574 0.1193 148 1 69.86 2023-04-24
17. What's the use you learning to do right when it's troublesom... 69.53 1.1038 0.0673 139 1 69.53 2023-04-24
18. I am learning about twenty new Italian words a day. Where am... 69.19 1.0441 0.1213 252 1 69.19 2023-04-24
19. What do you do with the mad that you feel, when you feel so ... 69.17 1.0420 0.1230 301 1 69.17 2023-09-14
20. A rogue does not laugh in the same way that an honest man do... 69.15 1.0326 0.1321 274 1 69.15 2023-04-24
21. Morning has broken like the first morning, blackbird has spo... 69.04 1.0408 0.1220 180 1 69.04 2023-04-23
22. There are but two types of men who desire war: those who hav... 69.01 1.0679 0.0944 256 1 69.01 2023-04-24
23. You never know the biggest day of your life is going to be t... 68.69 1.1675 -0.0105 282 1 68.69 2023-04-24
24. I suddenly had the impression that I had been left all alone... 68.51 1.0261 0.1278 273 1 68.51 2023-04-24
25. You can have my isolation, you can have the hate that it bri... 68.47 1.0318 0.1214 126 1 68.47 2023-04-23
26. Step out the front door like a ghost into the fog where no o... 68.45 1.0567 0.0962 303 1 68.45 2023-04-24
27. When I need to find something out, I just go out and look fo... 68.42 1.0656 0.0868 147 1 68.42 2023-04-24
28. Blessed is he who, in the name of charity and goodwill, shep... 68.24 1.0182 0.1312 302 1 68.24 2023-04-24
29. I hope that whoever you are, you escape this place. I hope t... 67.91 1.0885 0.0553 315 1 67.91 2023-04-23
30. We are going to die, and that makes us the lucky ones. Most ... 67.90 1.0439 0.0997 369 1 67.90 2023-04-24
31. I am the happiest creature in the world. Perhaps other peopl... 67.89 1.0281 0.1154 168 1 67.89 2023-04-24
32. The single most important thing you can do to achieve financ... 67.75 1.0205 0.1206 148 1 67.75 2023-09-14
33. People running everywhere, don't know the way to go, don't k... 67.23 1.0625 0.0699 217 1 67.23 2023-04-24
34. There is no way that this winter is ever going to end as lon... 66.86 1.0372 0.0889 183 1 66.86 2023-04-24
35. Only the silent, sleepy, staring houses in the backwoods can... 66.83 1.0481 0.0775 309 1 66.83 2023-04-24
36. Your bed is with you in the void. But not for long - it goes... 66.73 1.0558 0.0681 232 1 66.73 2023-04-24
37. Give me reasons we should be complete. You should be with hi... 66.71 0.9977 0.1259 183 1 66.71 2023-09-14
38. Monsters come in all shapes and sizes. Some of them are thin... 66.54 1.1012 0.0195 250 1 66.54 2023-04-24
39. Ogres trapped my spirit here long ago for daring to defy the... 66.46 1.0009 0.1185 199 1 66.46 2023-04-24
40. Every day when you're walking down the street, everybody tha... 66.29 1.0469 0.0696 220 1 66.29 2023-04-24
41. As he watches through the door, his smile pulls in more and ... 66.16 1.0332 0.0811 263 1 66.16 2023-04-24
42. Without some flexibility in our definitions we'll remain for... 66.13 0.9599 0.1539 147 2 62.47 2023-04-24
43. Benjamin was the oldest animal on the farm, and the worst te... 65.89 1.0564 0.0534 283 1 65.89 2023-04-24
44. Turn me loose from your hands, let me fly to distant lands o... 65.85 1.0636 0.0455 164 1 65.85 2023-04-24
45. There will come a time when all of us are dead. All of us. T... 65.72 1.0442 0.0627 554 1 65.72 2023-09-14
46. Silence fell between them, as tangible as the dark tree shad... 65.71 1.0389 0.0679 199 1 65.71 2023-04-23
47. There are no simple answers in life. There is good and bad i... 65.63 1.0687 0.0367 287 1 65.63 2023-04-24
48. Don't tell me what's in, don't tell me how to write, don't t... 65.30 1.0695 0.0304 183 1 65.30 2023-04-24
49. Love in the nineties is paranoid. On sunny beaches, take you... 65.17 1.0433 0.0544 231 1 65.17 2023-04-24
50. First time we had dinner, you asked me what I wanted from yo... 65.05 1.0198 0.0758 239 1 65.05 2023-04-24
51. It was a strange feeling, holding the rifle. It somehow remo... 65.01 1.0435 0.0515 441 1 65.01 2023-04-24
52. Very often research which has deeply interested me while I w... 64.99 1.0242 0.0704 296 1 64.99 2023-04-24
53. I don't like when I can't control what reality is doing. Whi... 64.85 1.0592 0.0331 231 2 59.95 2023-09-14
54. Money, you've got lots of friends crowding around the door. ... 64.79 1.0159 0.0754 307 1 64.79 2023-09-14
55. Well, we used to look up in the sky and wonder at our place ... 64.69 1.0289 0.0607 134 1 64.69 2023-04-23
56. I hate all the rules and organization and teams and ranks in... 64.37 1.0175 0.0667 227 1 64.37 2023-04-24
57. Second chances don't come around all that often. I suggest y... 64.22 1.1234 -0.0417 209 1 64.22 2023-04-24
58. It is a contradiction in terms and ideas to call anything a ... 64.21 1.0624 0.0191 510 1 64.21 2023-04-24
59. Humans need to practice what they are learning a good deal b... 64.20 1.1016 -0.0203 233 1 64.20 2023-04-24
60. No more will my green sea go turn a deeper blue. I could not... 64.19 1.0474 0.0338 194 1 64.19 2023-04-24
61. I'm so glad you came, I'm so glad you remembered, to see how... 63.90 1.0403 0.0360 193 1 63.90 2023-04-24
62. I don't want to talk if it makes you feel sad, and I underst... 63.70 1.0316 0.0413 150 1 63.70 2023-04-23
63. In an age as agitated as ours, it no longer suffices just to... 63.63 1.0322 0.0395 327 2 61.74 2023-04-24
64. For one who contradicts emptiness there would be nothing tha... 63.40 1.0064 0.0615 143 1 63.40 2023-04-24
65. Well, you've cracked the sky, scrapers fill the air, but wil... 63.36 1.0235 0.0437 232 1 63.36 2023-04-23
66. Lonely people tend, rather, to be lonely because they declin... 63.26 1.0172 0.0483 179 2 58.87 2023-04-24
67. When the shoes first fell from the sky, he remembered thinki... 63.25 1.0181 0.0472 170 1 63.25 2023-04-24
68. It is as hard to understand how consciousness emerges and di... 63.20 1.0513 0.0132 279 1 63.20 2023-04-24
69. One way to combat the horizon effect is to continue search w... 63.12 0.9775 0.0856 191 1 63.12 2023-04-24
70. If someone is able to show me that what I think or do is not... 63.08 1.0577 0.0048 233 1 63.08 2023-04-23
71. Court reporters are required to complete a specialized train... 62.92 1.0034 0.0564 242 1 62.92 2023-04-24
72. Are you, are you coming to the tree? Where they strung up a ... 62.86 1.0452 0.0136 193 1 62.86 2023-04-24
73. What a lamentable thing it is that men should blame the gods... 62.86 1.0927 -0.0339 198 1 62.86 2023-04-24
74. Every computer has some main memory it uses to hold executin... 62.84 1.0677 -0.0093 241 1 62.84 2023-04-24
75. For a moment the last sunshine fell with romantic affection ... 62.75 0.9907 0.0662 260 1 62.75 2023-04-24
76. I've been fighting to be who I am all my life. What's the po... 62.71 1.0468 0.0094 145 1 62.71 2023-04-24
77. That woman has to show you're a fraud, but as far as the wor... 62.69 1.0100 0.0459 213 1 62.69 2023-04-24
78. Surely death has found me, it has kept a hold of me all this... 62.65 1.0498 0.0054 183 1 62.65 2023-04-23
79. Tom put the Ring round the end of his little finger and held... 62.51 1.0025 0.0504 374 1 62.51 2023-04-24
80. Remember the day I set you free, I told you you could always... 62.38 1.0147 0.0360 157 1 62.38 2023-04-24
81. As passions are contagious, and the bulk of men are more gui... 62.26 1.0380 0.0107 274 1 62.26 2023-04-23
82. That's right, and the one who wins gets a prize, only there ... 62.23 1.0608 -0.0127 214 1 62.23 2023-04-23
83. In every idea of genius or in every new human idea, or, more... 62.13 0.9813 0.0652 189 1 62.13 2023-04-24
84. I'm in love with you, and I know that love is just a shout i... 62.08 1.0824 -0.0368 300 1 62.08 2023-04-23
85. Endlessly gazing in nocturnal prime. She spoke of her vices ... 62.05 0.9607 0.0844 163 1 62.05 2023-04-24
86. Heaven knows we need never be ashamed of our tears, for they... 61.94 1.0106 0.0327 234 1 61.94 2023-04-24
87. Now I have a story that I'd like to tell about this guy, you... 61.92 0.9889 0.0540 198 1 61.92 2023-04-24
88. How sweet it is to love someone, how right it is to care. Ho... 61.79 1.0513 -0.0106 171 1 61.79 2023-04-23
89. Look, I'm not the first guy who fell in love with a girl he ... 61.77 1.0204 0.0200 309 1 61.77 2023-04-23
90. This is the end, beautiful friend. This is the end, my only ... 61.68 0.9965 0.0424 215 1 61.68 2023-04-24
91. Life without change might be called anything except life, it... 61.58 1.0464 -0.0092 175 1 61.58 2023-04-24
92. If you lie and pretend that you like them, you're fine. But ... 61.45 1.0965 -0.0615 204 1 61.45 2023-04-24
93. We sit silently and watch the world around us. This has take... 61.38 1.0296 0.0042 437 1 61.38 2023-04-24
94. Come on now, we're going to go build a mirror factory first ... 61.18 1.0424 -0.0119 139 1 61.18 2023-04-24
95. A few light taps upon the pane made him turn to the window. ... 61.15 1.0387 -0.0087 239 1 61.15 2023-04-24
96. Our evaluations of reflection and transmission at material i... 61.11 1.0295 -0.0002 407 1 61.11 2023-04-24
97. Wish we could turn back time, to the good old days. When our... 61.01 1.0192 0.0084 196 1 61.01 2023-04-24
98. Cardan looks at me as though he's never seen me before. He l... 60.90 1.0305 -0.0048 139 1 60.90 2023-04-23
99. Perhaps the most serious way in which parasites that are usu... 60.58 1.0500 -0.0296 379 1 60.58 2023-09-14
100. You've got me over the moon, and that's no jest. We're miles... 60.52 1.0161 0.0032 182 1 60.52 2023-04-23
101. 'Cause what the world needs now is a new kind of tension 'ca... 60.43 1.0042 0.0136 185 1 60.43 2023-04-24
102. Fred pulled back and steered the nose of the plane into the ... 60.31 1.0174 -0.0016 197 1 60.31 2023-04-23
103. What you need to learn, children, is the difference between ... 60.29 1.1081 -0.0926 167 1 60.29 2023-04-22
104. I wanted you to see what real courage is, instead of getting... 60.28 1.0942 -0.0789 263 1 60.28 2023-04-23
105. It's not a question but a lesson learned in time. It's somet... 60.15 1.0465 -0.0334 144 1 60.15 2023-04-23
106. Sometimes terrible things happen, but there's nothing more t... 60.01 1.0135 -0.0027 106 1 60.01 2023-04-24
107. You know, Michael; now that you're so respectable, I think y... 59.81 0.9978 0.0096 150 1 59.81 2023-04-24
108. Fear came to my house years ago, I let him in. Maybe that's ... 59.75 1.0254 -0.0190 476 1 59.75 2023-04-24
109. If a tree falls in the forest and no one hears it fall, does... 59.66 1.0324 -0.0275 291 1 59.66 2023-04-23
110. Wake up princess, I'm tired of your useless ideals. It's got... 59.46 1.0340 -0.0325 220 1 59.46 2023-04-24
111. Our world, with its rules of causality, has trained us to be... 59.37 0.9817 0.0183 282 1 59.37 2023-04-24
112. Power is a lot like real estate. It's all about location, lo... 59.37 1.0007 -0.0007 143 1 59.37 2023-04-24
113. Imagine you are standing between opposing sides of a paradox... 59.35 1.0469 -0.0473 408 1 59.35 2023-04-24
114. We think it is time that you recognized that you are masters... 59.27 1.0352 -0.0369 275 1 59.27 2023-04-24
115. Talk to me baby. Tell me what you're feeling. You say you do... 59.05 1.0460 -0.0514 239 1 59.05 2023-04-23
116. She was feeling the pressure of the world outside and she wa... 58.96 1.1519 -0.1588 171 1 58.96 2023-04-23
117. If I touch a burning candle, I can feel no pain. In the ice ... 58.91 1.0590 -0.0668 300 1 58.91 2023-04-24
118. Oh, you're leaving... I always knew that one day, this day w... 58.91 1.0312 -0.0390 204 1 58.91 2023-04-23
119. When we're young, we're taught the distinction between a her... 58.89 1.0141 -0.0222 188 1 58.89 2023-04-24
120. If there is one thing the history of evolution has taught us... 58.82 1.0099 -0.0192 207 1 58.82 2023-04-23
121. I'd discovered, after a lot of extreme apprehension about wh... 58.28 1.0711 -0.0895 344 1 58.28 2023-04-23
122. You can know the name of a bird in all the languages of the ... 58.27 1.0696 -0.0882 317 1 58.27 2023-04-23
123. So, let me be honest... making money is not like I thought i... 58.17 1.0450 -0.0652 174 1 58.17 2023-04-23
124. Over and over again we have tried to find a peaceful way out... 58.06 1.0195 -0.0416 437 1 58.06 2023-04-24
125. If all else perished, and he remained, I should still contin... 58.03 1.0365 -0.0591 166 1 58.03 2023-04-24
126. Whenever you watch the mind, you withdraw consciousness from... 58.00 0.9844 -0.0075 293 1 58.00 2023-04-24
127. Yes, they think we're dumb. They call us the common people. ... 57.87 1.0548 -0.0801 160 1 57.87 2023-04-24
128. It is possible that I already had some presentiment of my fu... 57.79 1.0349 -0.0615 234 1 57.79 2023-04-24
129. So, even though you have broken my heart yet again, I wanted... 57.51 1.0326 -0.0640 150 1 57.51 2023-04-23
130. Sometimes I wondered if I was seeing the same things through... 57.46 1.0956 -0.1278 160 1 57.46 2023-04-23
131. Achilles will never overtake the tortoise. He must first rea... 57.46 1.0924 -0.1246 289 1 57.46 2023-04-23
132. If you want to hang on my shoulder, I'm standing here. If yo... 57.33 1.0334 -0.0678 247 2 56.30 2023-04-24
133. The present is eternally flawed. But where you start might n... 57.23 1.0255 -0.0616 343 1 57.23 2023-04-24
134. When we are young, wandering the face of the earth, wonderin... 57.05 1.0480 -0.0871 147 1 57.05 2023-04-23
135. The truth is that there are a lot of people like you, us, wi... 57.03 1.0473 -0.0867 286 1 57.03 2023-04-24
136. We've wounded this mountain. It's our duty to close her woun... 57.01 0.9710 -0.0108 198 1 57.01 2023-04-24
137. We shall go on to the end, we shall fight in France, we shal... 56.79 1.0984 -0.1419 391 1 56.79 2023-04-23
138. Opening your eyes is all that is needing. The heart lies and... 56.77 1.0281 -0.0719 293 1 56.77 2023-04-24
139. You can tell me that your dog ran away then tell me that it ... 56.63 1.0282 -0.0744 273 1 56.63 2023-04-24
140. I am now quite cured of seeking pleasure in society, be it c... 56.61 0.9328 0.0207 135 1 56.61 2023-04-23
141. All I do is talk a big game, and make myself sound like a bi... 56.59 1.0304 -0.0772 224 1 56.59 2023-04-23
142. You don't need money, don't take fame. Don't need no credit ... 56.53 1.0563 -0.1042 198 1 56.53 2023-04-24
143. So don't be afraid to make mistakes, stumble and fall, becau... 56.47 1.0751 -0.1240 350 1 56.47 2023-04-24
144. It is always painful to part from people whom one has known ... 56.23 0.9751 -0.0280 253 1 56.23 2023-09-14
145. A life is made up of a great number of small incidents and a... 56.15 0.9848 -0.0391 305 1 56.15 2023-04-24
146. "You get what you deserve." It's an old saying, one that sur... 56.05 1.0328 -0.0887 448 1 56.05 2023-04-24
147. Is it really necessary to send that email? The more emails y... 56.00 1.0120 -0.0688 290 1 56.00 2023-04-23
148. I make my living off the evening news. Just give me somethin... 55.84 1.0139 -0.0734 138 2 54.33 2023-04-23
149. In politics, my dear fellow, you know, as well as I do, ther... 55.79 0.9659 -0.0262 188 1 55.79 2023-09-14
150. She was wearing a pair of my pajamas with the sleeves rolled... 55.72 1.0166 -0.0781 326 1 55.72 2023-04-23
151. You know that death is the most beautiful part of life, righ... 55.69 1.0162 -0.0782 325 1 55.69 2023-04-24
152. I was just guessing at numbers and figures, pulling the puzz... 55.63 1.0138 -0.0768 147 1 55.63 2023-04-24
153. You know that I am called the Count because I really love to... 55.62 1.0268 -0.0900 268 1 55.62 2023-04-24
154. Lying is, almost by definition, a refusal to cooperate with ... 55.33 0.9771 -0.0452 251 1 55.33 2023-04-23
155. There is only one wish on my mind: when this day is through ... 55.01 1.1210 -0.1945 176 1 55.01 2023-04-23
156. But this rough magic I here abjure, and when I have required... 54.99 0.9822 -0.0560 284 1 54.99 2023-04-23
157. I often see racers, particularly at the back of the pack in ... 54.78 0.9653 -0.0426 349 1 54.78 2023-04-23
158. A sensitive and honest-minded man, if he's concerned about e... 54.59 0.9968 -0.0773 236 1 54.59 2023-04-23
159. If you are one of earth's inhabitants, how blest your father... 54.48 0.9964 -0.0788 390 1 54.48 2023-04-23
160. On a dark desert highway, cool wind in my hair, warm smell o... 54.40 0.9987 -0.0824 219 1 54.40 2023-04-23
161. Today, you people are no longer maggots. Today, you are Mari... 54.39 0.9965 -0.0804 310 1 54.39 2023-04-24
162. I was looking for myself and asking everyone except myself q... 54.32 0.9875 -0.0726 275 1 54.32 2023-04-23
163. Selling short is a way to make money if stock prices fall. I... 54.31 1.0922 -0.1775 230 1 54.31 2023-04-23
164. Double, double, toil and trouble; fire burn, and cauldron bu... 53.94 0.9148 -0.0063 317 1 53.94 2023-04-24
165. Everyone wants stuff. We wake up every day with a list of wi... 53.88 1.0904 -0.1829 213 1 53.88 2023-04-24
166. She had a horror of rooms. She was tired you can't hide beat... 53.88 1.0377 -0.1302 247 1 53.88 2023-04-23
167. Now the years are rolling by me. They are rocking evenly. An... 53.73 1.0077 -0.1027 261 1 53.73 2023-04-23
168. But the house gets so quiet sitting here wishing for just an... 53.71 1.0528 -0.1482 258 1 53.71 2023-04-23
169. Moral of the story is: I chose a half measure when I should ... 53.61 1.0032 -0.1002 149 1 53.61 2023-04-23
170. "You must never feel badly about making mistakes," explained... 53.59 1.0188 -0.1162 242 1 53.59 2023-04-23
171. When I really worry about something, I don't just fool aroun... 53.48 1.0337 -0.1329 214 1 53.48 2023-04-24
172. You're curious and smart, and bored, and all you see is the ... 53.45 1.0970 -0.1967 299 1 53.45 2023-04-23
173. I'll be the number two guy here in about six weeks. How? Nam... 53.34 0.9596 -0.0612 205 1 53.34 2023-04-23
174. When the snow is on our mind, rows and rows and lines and li... 53.18 1.0484 -0.1527 267 1 53.18 2023-04-24
175. I'm trying to explain that I'm a person who wishes to live a... 53.09 1.0638 -0.1696 332 1 53.09 2023-04-24
176. It was the most horrible, the most repellent thing she had e... 52.89 1.0799 -0.1891 214 1 52.89 2023-04-23
177. Neal, the board is deciding whether to release you from your... 52.69 1.0124 -0.1249 194 1 52.69 2023-04-23
178. Throughout my academic career, I'd given some pretty good ta... 52.65 0.9649 -0.0781 193 1 52.65 2023-04-23
179. The life of everyone on board depends upon just one thing: f... 52.44 1.0498 -0.1665 155 1 52.44 2023-04-23
180. Getting into trouble is not a bad thing. It's proof that som... 52.32 1.0356 -0.1544 150 1 52.32 2023-04-22
181. Sitting in the morning sun, I'll be sitting when the evening... 52.13 1.0538 -0.1758 244 1 52.13 2023-04-22
182. Some people's lives seem to flow in a narrative; mine had ma... 52.04 0.9602 -0.0837 199 1 52.04 2023-04-23
183. That was the battle, but this is the war. I'll show you what... 52.02 1.0261 -0.1499 203 1 52.02 2023-04-23
184. I don't want tickets, I need you to find me a painting, a cl... 52.01 1.0506 -0.1746 277 1 52.01 2023-04-24
185. Look round at the courses of the stars, as if thou wert goin... 52.01 1.0424 -0.1664 208 1 52.01 2023-04-23
186. The brain can be a tool. It can recall phone numbers, solve ... 51.94 1.0340 -0.1592 406 1 51.94 2023-04-23
187. John, the kind of control you're attempting simply is not po... 51.78 1.0213 -0.1492 303 1 51.78 2023-04-23
188. My mind is open so wide since you came inside, I feel so ali... 51.49 1.0213 -0.1540 174 1 51.49 2023-04-23
189. I never got to bat in the major leagues. I'd have liked to h... 50.89 1.0298 -0.1727 259 1 50.89 2023-04-24
190. Sure is mellow grazin' in the grass. What a trip just watchi... 50.86 0.9904 -0.1338 211 1 50.86 2023-04-23
191. Soon I'll be sixty years old, my daddy got sixty-one. Rememb... 50.77 0.9803 -0.1252 216 1 50.77 2023-04-23
192. I have all the characteristics of a human being: blood, fles... 50.60 0.9497 -0.0974 350 1 50.60 2023-04-23
193. That day, for no particular reason, I decided to go for a li... 50.56 0.9841 -0.1325 334 1 50.56 2023-04-24
194. You know, sweetheart, if there's one thing I've learned, it'... 50.22 1.0002 -0.1543 161 1 50.22 2023-04-23
195. Whoever could make two ears of corn, or two blades of grass,... 49.93 1.0091 -0.1681 246 1 49.93 2023-04-23
196. Now I see fire inside the mountain, I see fire burning the t... 49.83 1.0180 -0.1787 163 1 49.83 2023-04-24
197. Come and hold my hand. I want to contact the living. Not sur... 49.76 1.0315 -0.1934 201 1 49.76 2023-04-23
198. And if you were prejudiced, you'd walk around thinking that ... 49.74 1.0299 -0.1921 209 1 49.74 2023-04-23
199. I was just a child when the stars fell from the skies, but I... 49.68 1.0394 -0.2026 325 1 49.68 2023-04-23
200. Droll thing life is - that mysterious arrangement of mercile... 49.51 0.9742 -0.1403 210 1 49.51 2023-04-23
201. Sometimes, when you meet a new operative, it's a good idea t... 49.43 1.0322 -0.1996 310 1 49.43 2023-04-23
202. My name is Dr. Glenn Pierce, and by now you may have realize... 49.42 1.0478 -0.2154 519 1 49.42 2023-04-23
203. Planet Earth. This is where I was born. And this is where I ... 49.09 1.0425 -0.2157 345 1 49.09 2023-04-23
204. Every life is in many days, day after day. We walk through o... 48.72 0.9318 -0.1112 185 1 48.72 2023-04-23
205. Everything teeters between pathos and bathos: here you are, ... 48.56 0.9104 -0.0925 188 1 48.56 2023-04-23
206. The basis of the Aztecs' success in creating a great state a... 48.50 0.9908 -0.1739 342 1 48.50 2023-04-23
207. It won't always go your way, so you can't get trapped in thi... 48.13 1.0194 -0.2087 290 1 48.13 2023-04-23
208. I'm Rick Harrison, and this is my pawn shop. I work here wit... 47.75 0.9983 -0.1940 231 1 47.75 2023-04-23
209. I cannot define what I mean by 'intuition'. It is simply wha... 47.53 0.9047 -0.1041 305 1 47.53 2023-04-23
210. Do you know the truth of the battlefield? Kill a man normall... 47.38 0.9911 -0.1931 148 1 47.38 2023-04-23
211. Blore stood rigid - listening. He could hear sounds everywhe... 47.28 1.0050 -0.2087 395 1 47.28 2023-04-23
212. To some, the rules of etiquette may seem outdated, stuffy an... 47.24 0.8348 -0.0391 219 1 47.24 2023-04-22
213. What should have been swift revenge turned into an all out w... 46.52 0.9936 -0.2101 311 1 46.52 2023-04-23
214. I know you have received orders from our commandant, which h... 46.41 1.0002 -0.2185 306 1 46.41 2023-04-23
215. As a manager you will also be able to control gravity. Sir I... 45.21 0.9706 -0.2091 409 1 45.21 2023-04-23
216. Ideology: the process of making ideas. Certain artisans were... 43.59 0.9430 -0.2088 297 1 43.59 2023-04-23
217. During the battle, Rebel spies managed to steal secret plans... 43.33 0.8573 -0.1275 270 1 43.33 2023-04-23
218. Buddhism addresses two major types of meditation. Vipassana ... 40.13 0.9312 -0.2553 320 1 40.13 2023-04-23
219. Scissors cuts paper. Paper covers rock. Rock crushes lizard.... 39.73 0.7918 -0.1226 244 1 39.73 2023-04-24
220. Scooby Dooby Doo, where are you? We got some work to do now.... 36.81 0.8627 -0.2427 125 1 36.81 2023-04-24